Airfield :
LOGIN :

Register | Disclaimer

   EN    FR    IT 

 










Legend :    VFR   Marginal VFR   IFR   Intensive IFR   Very Intensive IFR
Visi :
Ceiling :
>= 8 km
>= 3000ft
5 to 8 km
1000 to 3000 ft
1500m to 5 km
500 to 1000 ft
800 to 1500m
200 to 500 ft
< 800m
< 200 ft
Symbols :   Thunderstorms  Fog  Heavy snow  Heavy precipitations  Wind > 20 kt
SIGMETs :     Misc.  Thunderstorms  Icing  Turbulence  Mountain Waves  Volcanic Ashes






- Airport Elevation : 25 ft
- IATA code : TPS


LICT - Vincenzo Florio Trapani

CURRENT METAR :
  • 070855Z 17015KT CAVOK 26/12 Q1012 RMK BKN BKN120 SCT200 VIS MIN 9999 WIND THR13 15013KT BLU

EXPIRED METARs :
  • 070755Z 16013KT CAVOK 24/15 Q1011
  • 070655Z 15008KT CAVOK 21/17 Q1012 RMK BKN BKN200 VIS MIN 9999 WIND THR13 13008KT BLU

TAF TAF LICT
Valid from the 07 at 09:00 until the 07 at 18:00 UTC


070800Z 0709/0718 18014KT 9999 FEW020
BECMG 0716/0718 35008KT



MET'MAP, your aeronautical weather chart ! - Copyright ORBIFLY December 2007 - Disclaimer

ORBIFLY MET'MAP TEAM :

Programming & Development : Alexandra Zaïnal
Concept & original design : Baudouin d'Aumeries
Assistance for programming : Marc-Olivier Méhu
Technical & hardware support : Manuel Goepfert

Contact : metmap@orbifly.com




SOURCES & CREDITS :

   NOAA